Time;durP1;ratioP1;P1;durP2;ratioP2;P2;SDS_P1;SDS_P2;PMS_P1;PMS_P2;Temp;Humidity;BMP_temperature;BMP_pressure;BME280_temperature;BME280_humidity;BME280_pressure;Samples;Min_cycle;Max_cycle;Signal;HPM_P1;HPM_P2
2021/12/26 00:01:49;;;;;;;4.20;3.80;;;3.00;99.90;;;;;;5109603;28;20179;-52
2021/12/26 00:04:16;;;;;;;4.70;4.13;;;3.00;99.90;;;;;;5111828;28;20193;-53
2021/12/26 00:06:43;;;;;;;3.67;3.37;;;2.90;99.90;;;;;;5112124;28;20203;-51
2021/12/26 00:09:09;;;;;;;4.17;3.77;;;3.00;99.90;;;;;;5112202;28;20173;-55
2021/12/26 00:11:35;;;;;;;4.63;4.13;;;3.10;99.90;;;;;;5112002;28;20291;-54
2021/12/26 00:14:01;;;;;;;4.47;4.00;;;3.20;99.90;;;;;;5099210;28;20343;-54
2021/12/26 00:16:26;;;;;;;4.33;3.93;;;3.30;99.90;;;;;;5091347;28;20231;-55
2021/12/26 00:18:52;;;;;;;4.70;4.10;;;3.30;99.90;;;;;;5091072;28;20173;-56
2021/12/26 00:21:20;;;;;;;5.70;4.50;;;3.30;99.90;;;;;;5091044;28;20173;-57
2021/12/26 00:23:46;;;;;;;5.10;4.60;;;3.30;99.90;;;;;;5090504;28;20196;-56
2021/12/26 00:26:13;;;;;;;5.40;4.57;;;3.20;99.90;;;;;;5091057;28;20197;-52
2021/12/26 00:28:39;;;;;;;5.17;4.50;;;3.20;99.90;;;;;;5091059;28;20639;-53
2021/12/26 00:31:06;;;;;;;5.37;4.83;;;3.20;99.90;;;;;;5091610;28;20197;-55
2021/12/26 00:33:32;;;;;;;5.03;4.53;;;3.30;99.90;;;;;;5090853;28;20205;-51
2021/12/26 00:35:59;;;;;;;4.93;4.30;;;3.30;99.90;;;;;;5090908;28;20216;-55
2021/12/26 00:38:25;;;;;;;6.00;5.30;;;3.30;99.90;;;;;;5091213;28;20612;-56
2021/12/26 00:40:51;;;;;;;5.60;4.97;;;3.00;99.90;;;;;;5091367;28;20245;-56
2021/12/26 00:43:17;;;;;;;5.83;5.23;;;2.90;99.90;;;;;;5091287;28;20184;-55
2021/12/26 00:45:42;;;;;;;8.67;6.70;;;2.90;99.90;;;;;;5090697;28;20697;-52
2021/12/26 00:48:08;;;;;;;8.00;6.90;;;3.00;99.90;;;;;;5091640;28;20178;-51
2021/12/26 00:50:36;;;;;;;7.30;6.50;;;3.20;99.90;;;;;;5091114;28;20174;-54
2021/12/26 00:53:03;;;;;;;9.57;7.83;;;3.30;99.90;;;;;;5090960;28;20201;-52
2021/12/26 00:55:28;;;;;;;9.90;8.77;;;3.50;99.90;;;;;;5090645;28;20607;-52
2021/12/26 00:57:54;;;;;;;11.07;9.87;;;3.60;99.90;;;;;;5091108;28;20166;-55
2021/12/26 01:00:30;;;;;;;8.83;7.93;;;3.60;99.90;;;;;;5093523;28;20166;-60
2021/12/26 01:02:58;;;;;;;12.00;9.53;;;3.70;99.90;;;;;;5094874;28;20246;-59
2021/12/26 01:05:25;;;;;;;9.77;8.67;;;3.70;99.90;;;;;;5094194;28;20620;-58
2021/12/26 01:08:02;;;;;;;9.13;7.63;;;3.70;99.90;;;;;;5094644;28;20177;-59
2021/12/26 01:10:33;;;;;;;9.10;8.13;;;3.80;99.90;;;;;;5094753;28;20173;-56
2021/12/26 01:13:09;;;;;;;9.93;8.47;;;3.90;99.90;;;;;;5094631;28;20213;-55
2021/12/26 01:15:34;;;;;;;10.70;9.30;;;3.90;99.90;;;;;;5094332;28;20334;-56
2021/12/26 01:18:00;;;;;;;11.47;9.70;;;3.80;99.90;;;;;;5093992;28;20205;-52
2021/12/26 01:20:43;;;;;;;11.83;10.00;;;3.70;99.90;;;;;;5094572;28;20170;-54
2021/12/26 01:23:12;;;;;;;10.80;8.30;;;3.60;99.90;;;;;;5094481;28;20665;-58
2021/12/26 01:25:37;;;;;;;10.07;9.00;;;3.50;99.90;;;;;;5094085;28;20217;-53
2021/12/26 01:28:04;;;;;;;11.27;9.33;;;3.50;99.90;;;;;;5094186;28;20170;-50
2021/12/26 01:30:31;;;;;;;12.77;10.00;;;3.50;99.90;;;;;;5094192;28;20184;-52
2021/12/26 01:32:57;;;;;;;12.30;9.53;;;3.50;99.90;;;;;;5093881;28;20225;-55
2021/12/26 01:35:23;;;;;;;12.00;10.17;;;3.40;99.90;;;;;;5093899;28;20221;-57
2021/12/26 01:37:48;;;;;;;11.83;9.20;;;3.40;99.90;;;;;;5093855;28;20545;-56
2021/12/26 01:40:15;;;;;;;14.13;11.03;;;3.60;99.90;;;;;;5094230;28;20227;-54
2021/12/26 01:42:41;;;;;;;11.03;8.80;;;3.60;99.90;;;;;;5093954;28;20170;-52
2021/12/26 01:45:07;;;;;;;9.87;8.40;;;3.60;99.90;;;;;;5093272;28;20262;-59
2021/12/26 01:47:33;;;;;;;9.10;7.73;;;3.60;99.90;;;;;;5093417;28;20188;-56
2021/12/26 01:49:59;;;;;;;9.03;8.03;;;3.40;99.90;;;;;;5094521;28;20189;-55
2021/12/26 01:52:25;;;;;;;10.87;8.97;;;3.40;99.90;;;;;;5094009;28;20217;-54
2021/12/26 01:55:00;;;;;;;11.67;9.93;;;3.50;99.90;;;;;;5094128;28;20192;-52
2021/12/26 01:57:26;;;;;;;13.20;10.97;;;3.60;99.90;;;;;;5094216;28;20327;-51
2021/12/26 01:59:52;;;;;;;19.47;13.90;;;3.60;99.90;;;;;;5093321;28;20249;-54
2021/12/26 02:02:17;;;;;;;15.40;11.73;;;3.60;99.90;;;;;;5093535;28;20166;-56
2021/12/26 02:04:43;;;;;;;12.23;10.03;;;3.70;99.90;;;;;;5093514;28;20200;-54
2021/12/26 02:07:11;;;;;;;21.77;14.30;;;3.80;99.90;;;;;;5092747;28;20174;-56
2021/12/26 02:09:37;;;;;;;15.00;11.73;;;3.80;99.90;;;;;;5093380;28;20538;-54
2021/12/26 02:12:04;;;;;;;14.50;11.83;;;3.90;99.90;;;;;;5092928;28;20190;-58
2021/12/26 02:14:29;;;;;;;13.27;11.03;;;3.90;99.90;;;;;;5092583;28;20312;-56
2021/12/26 02:16:55;;;;;;;11.73;10.10;;;3.80;99.90;;;;;;5092959;28;20253;-54
2021/12/26 02:19:21;;;;;;;11.03;9.67;;;3.90;99.90;;;;;;5093145;28;20590;-58
2021/12/26 02:22:11;;;;;;;10.50;9.33;;;3.90;99.90;;;;;;5093596;28;20178;-55
2021/12/26 02:27:38;;;;;;;10.53;8.67;;;4.10;99.90;;;;;;5092601;28;20292;-57
2021/12/26 02:30:16;;;;;;;11.63;9.50;;;3.90;99.90;;;;;;5093035;28;20176;-54
2021/12/26 02:32:44;;;;;;;9.47;8.37;;;;;;;;;;5092244;28;20209;-57
2021/12/26 02:35:10;;;;;;;11.70;9.30;;;;;;;;;;5092592;28;20212;-59
2021/12/26 02:37:36;;;;;;;11.47;9.70;;;;;;;;;;5092876;28;20170;-58
2021/12/26 02:40:04;;;;;;;11.43;9.63;;;4.00;99.90;;;;;;5092805;28;20181;-57
2021/12/26 02:42:30;;;;;;;11.07;9.53;;;;;;;;;;5091977;28;20178;-57
2021/12/26 02:44:55;;;;;;;13.30;11.33;;;4.10;99.90;;;;;;5091954;28;20182;-55
2021/12/26 02:47:45;;;;;;;14.50;11.23;;;4.10;99.90;;;;;;5091942;28;20170;-57
2021/12/26 02:50:24;;;;;;;13.23;10.60;;;3.90;99.90;;;;;;5092177;28;20602;-58
2021/12/26 02:52:50;;;;;;;15.47;12.30;;;3.80;99.90;;;;;;5092456;28;20296;-59
2021/12/26 02:55:18;;;;;;;15.70;12.80;;;3.70;99.90;;;;;;5091614;28;20531;-56
2021/12/26 02:58:02;;;;;;;17.60;13.17;;;3.50;99.90;;;;;;5092735;28;20201;-55
2021/12/26 03:00:31;;;;;;;13.60;11.53;;;3.70;99.90;;;;;;5090706;28;20193;-55
2021/12/26 03:03:00;;;;;;;15.23;11.87;;;3.30;99.90;;;;;;5091883;28;20650;-52
2021/12/26 03:05:28;;;;;;;14.27;12.23;;;3.40;99.90;;;;;;5092072;28;20186;-54
2021/12/26 03:07:54;;;;;;;14.17;11.63;;;;;;;;;;5092569;28;20172;-57
2021/12/26 03:10:24;;;;;;;14.60;10.90;;;3.20;99.90;;;;;;5092141;28;20642;-58
2021/12/26 03:12:53;;;;;;;18.87;12.80;;;3.10;99.90;;;;;;5092053;28;20237;-56
2021/12/26 03:15:20;;;;;;;15.67;12.07;;;3.00;99.90;;;;;;5091674;28;20221;-53
2021/12/26 03:17:46;;;;;;;14.93;11.97;;;3.20;99.90;;;;;;5091383;28;20174;-55
2021/12/26 03:20:14;;;;;;;14.97;12.17;;;3.20;99.90;;;;;;5091805;28;20162;-54
2021/12/26 03:22:41;;;;;;;15.83;12.63;;;3.20;99.90;;;;;;5091990;28;20648;-51
2021/12/26 03:25:12;;;;;;;15.90;12.67;;;2.70;99.90;;;;;;5092030;28;20550;-55
2021/12/26 03:27:37;;;;;;;16.97;13.50;;;;;;;;;;5089631;28;20181;-54
2021/12/26 03:30:07;;;;;;;16.47;13.10;;;3.00;99.90;;;;;;5091791;28;20759;-57
2021/12/26 03:32:33;;;;;;;17.23;13.30;;;3.40;99.90;;;;;;5091186;28;20212;-53
2021/12/26 03:34:58;;;;;;;19.57;13.90;;;3.40;99.90;;;;;;5091285;28;20197;-53
2021/12/26 03:37:24;;;;;;;17.50;13.10;;;;;;;;;;5091905;28;20549;-54
2021/12/26 03:39:50;;;;;;;16.27;13.30;;;;;;;;;;5091294;28;20185;-55
2021/12/26 03:42:21;;;;;;;16.07;12.47;;;;;;;;;;5091499;28;20202;-57
2021/12/26 03:44:50;;;;;;;16.13;13.13;;;3.40;99.90;;;;;;5089360;28;20204;-52
2021/12/26 03:47:16;;;;;;;16.90;13.30;;;3.10;99.90;;;;;;5091136;28;20553;-51
2021/12/26 03:49:42;;;;;;;17.83;13.67;;;3.30;99.90;;;;;;5091734;28;20188;-51
2021/12/26 03:52:09;;;;;;;17.13;13.20;;;3.30;99.90;;;;;;5091686;28;20209;-56
2021/12/26 03:54:34;;;;;;;17.90;13.40;;;3.60;99.90;;;;;;5091112;28;20198;-52
2021/12/26 03:57:00;;;;;;;18.07;14.13;;;;;;;;;;5091633;28;20214;-54
2021/12/26 03:59:27;;;;;;;17.10;13.20;;;3.40;99.90;;;;;;5089938;28;20227;-56
2021/12/26 04:01:56;;;;;;;17.20;13.87;;;3.30;99.90;;;;;;5090079;28;20189;-53
2021/12/26 04:04:22;;;;;;;18.77;14.33;;;3.40;99.90;;;;;;5089785;28;20193;-53
2021/12/26 04:06:48;;;;;;;18.13;14.00;;;;;;;;;;5090954;28;20182;-56
2021/12/26 04:09:14;;;;;;;19.13;12.90;;;3.10;99.90;;;;;;5091674;28;20260;-53
2021/12/26 04:11:43;;;;;;;16.20;13.27;;;3.10;99.90;;;;;;5090360;28;20212;-54
2021/12/26 04:14:09;;;;;;;16.40;12.97;;;3.50;99.90;;;;;;5089713;28;20190;-56
2021/12/26 04:16:35;;;;;;;18.87;13.67;;;3.40;99.90;;;;;;5089791;28;20226;-57
2021/12/26 04:19:01;;;;;;;16.47;13.17;;;3.30;99.90;;;;;;5090370;28;20202;-55
2021/12/26 04:21:27;;;;;;;18.83;14.00;;;;;;;;;;5090211;28;20638;-57
2021/12/26 04:23:53;;;;;;;18.23;14.10;;;;;;;;;;5091243;28;20194;-53
2021/12/26 04:26:19;;;;;;;17.53;13.07;;;;;;;;;;5091406;28;20178;-56
2021/12/26 04:28:45;;;;;;;17.30;13.30;;;3.50;99.90;;;;;;5091158;28;20170;-57
2021/12/26 04:31:10;;;;;;;16.73;12.90;;;3.40;99.90;;;;;;5091663;28;20181;-57
2021/12/26 04:33:36;;;;;;;14.90;11.60;;;3.40;99.90;;;;;;5091066;28;20343;-57
2021/12/26 04:36:02;;;;;;;15.10;12.10;;;;;;;;;;5095121;28;20181;-55
2021/12/26 04:38:28;;;;;;;14.67;11.90;;;3.50;99.90;;;;;;5095178;28;20166;-55
2021/12/26 04:40:54;;;;;;;15.23;11.73;;;;;;;;;;5095420;28;20178;-54
2021/12/26 04:43:22;;;;;;;16.77;13.47;;;;;;;;;;5094910;28;20185;-57
2021/12/26 04:45:48;;;;;;;15.43;12.30;;;3.30;99.90;;;;;;5095065;28;20178;-57
2021/12/26 04:48:14;;;;;;;15.30;12.70;;;3.70;99.90;;;;;;5095146;28;20170;-51
2021/12/26 04:50:43;;;;;;;16.17;12.60;;;3.60;99.90;;;;;;5094815;28;20166;-54
2021/12/26 04:53:09;;;;;;;14.53;11.50;;;3.40;99.90;;;;;;5095083;28;20220;-59
2021/12/26 04:55:35;;;;;;;15.20;11.67;;;2.90;99.90;;;;;;5094415;28;20557;-58
2021/12/26 04:58:01;;;;;;;14.70;11.40;;;;;;;;;;5094984;28;20538;-55
2021/12/26 05:00:29;;;;;;;15.07;11.27;;;3.30;99.90;;;;;;5094591;28;20581;-58
2021/12/26 05:02:57;;;;;;;14.80;11.63;;;3.20;99.90;;;;;;5094940;28;20220;-57
2021/12/26 05:05:22;;;;;;;12.67;10.67;;;3.40;99.90;;;;;;5094422;28;20754;-55
2021/12/26 05:07:48;;;;;;;14.67;11.63;;;3.50;99.90;;;;;;5094788;28;20205;-59
2021/12/26 05:10:18;;;;;;;15.60;11.50;;;3.50;99.90;;;;;;5093561;28;20177;-53
2021/12/26 05:12:43;;;;;;;15.90;12.67;;;3.10;99.90;;;;;;5094234;28;20225;-51
2021/12/26 05:15:10;;;;;;;17.20;12.73;;;3.20;99.90;;;;;;5094431;28;20221;-57
2021/12/26 05:17:37;;;;;;;15.33;11.83;;;3.00;99.90;;;;;;5094481;28;20174;-54
2021/12/26 05:20:03;;;;;;;15.53;12.73;;;3.40;99.90;;;;;;5094644;28;20169;-58
2021/12/26 05:22:29;;;;;;;16.70;13.40;;;3.30;99.90;;;;;;5094215;28;20261;-59
2021/12/26 05:24:55;;;;;;;16.97;13.27;;;3.60;99.90;;;;;;5092880;28;20251;-56
2021/12/26 05:27:20;;;;;;;19.77;14.13;;;3.50;99.90;;;;;;5094280;28;20174;-56
2021/12/26 05:29:46;;;;;;;17.83;13.73;;;3.50;99.90;;;;;;5094592;28;20208;-57
2021/12/26 05:32:12;;;;;;;17.27;13.10;;;3.20;99.90;;;;;;5094225;28;20205;-57
2021/12/26 05:34:38;;;;;;;18.23;13.30;;;;;;;;;;5093868;28;20197;-57
2021/12/26 05:37:04;;;;;;;17.10;12.93;;;2.90;99.90;;;;;;5093738;28;20231;-59
2021/12/26 05:39:29;;;;;;;17.70;13.60;;;2.80;99.90;;;;;;5094055;28;20177;-57
2021/12/26 05:41:55;;;;;;;17.60;13.53;;;2.90;99.90;;;;;;5094640;28;20177;-57
2021/12/26 05:44:21;;;;;;;19.77;14.47;;;2.80;99.90;;;;;;5093595;28;20198;-57
2021/12/26 05:46:47;;;;;;;17.57;13.80;;;;;;;;;;5093620;28;20283;-57
2021/12/26 05:49:12;;;;;;;20.50;14.43;;;2.70;99.90;;;;;;5094014;28;20174;-58
2021/12/26 05:51:39;;;;;;;18.60;13.70;;;2.60;99.90;;;;;;5094153;28;20227;-52
2021/12/26 05:54:06;;;;;;;18.83;13.93;;;2.50;99.90;;;;;;5114128;28;20185;-51
2021/12/26 05:56:31;;;;;;;21.63;16.13;;;2.40;99.90;;;;;;5113242;28;20706;-52
2021/12/26 05:58:57;;;;;;;18.73;13.77;;;2.40;99.90;;;;;;5114479;28;20260;-56
2021/12/26 06:01:23;;;;;;;20.37;14.40;;;2.30;99.90;;;;;;5114018;28;20180;-56
2021/12/26 06:03:48;;;;;;;20.20;14.80;;;2.40;99.90;;;;;;5114126;28;20193;-52
2021/12/26 06:06:14;;;;;;;25.97;17.80;;;;;;;;;;5113538;28;20176;-52
2021/12/26 06:08:40;;;;;;;22.50;15.50;;;2.30;99.90;;;;;;5114208;28;20179;-56
2021/12/26 06:11:05;;;;;;;20.93;14.63;;;2.40;99.90;;;;;;5113770;28;20518;-54
2021/12/26 06:13:32;;;;;;;20.03;15.30;;;2.40;99.90;;;;;;5113796;28;20577;-53
2021/12/26 06:15:58;;;;;;;22.27;16.23;;;2.50;99.90;;;;;;5113885;28;20689;-54
2021/12/26 06:18:24;;;;;;;19.47;13.83;;;2.60;99.90;;;;;;5113876;28;20413;-55
2021/12/26 06:20:49;;;;;;;18.83;14.73;;;2.70;99.90;;;;;;5113830;28;20501;-53
2021/12/26 06:23:15;;;;;;;19.43;14.43;;;2.70;99.90;;;;;;5113692;28;20169;-56
2021/12/26 06:25:40;;;;;;;22.30;15.20;;;2.90;99.90;;;;;;5113519;28;20277;-55
2021/12/26 06:28:06;;;;;;;21.97;15.37;;;2.80;99.90;;;;;;5113622;28;20698;-52
2021/12/26 06:30:32;;;;;;;21.67;16.97;;;2.70;99.90;;;;;;5112981;28;20256;-56
2021/12/26 06:32:58;;;;;;;18.57;15.03;;;2.70;99.90;;;;;;5113446;28;20234;-53
2021/12/26 06:35:23;;;;;;;18.20;13.87;;;2.70;99.90;;;;;;5113123;28;20234;-55
2021/12/26 06:37:49;;;;;;;19.10;14.80;;;2.70;99.90;;;;;;5113057;28;20214;-52
2021/12/26 06:40:14;;;;;;;20.13;15.83;;;2.80;99.90;;;;;;5113590;28;20197;-55
2021/12/26 06:42:43;;;;;;;21.23;15.73;;;2.80;99.90;;;;;;5113348;28;20649;-52
2021/12/26 06:45:11;;;;;;;24.10;16.50;;;2.80;99.90;;;;;;5112753;28;20200;-51
2021/12/26 06:47:37;;;;;;;19.43;14.40;;;2.90;99.90;;;;;;5113249;28;20169;-52
2021/12/26 06:50:05;;;;;;;19.17;14.33;;;2.90;99.90;;;;;;5112860;28;20216;-53
2021/12/26 06:52:30;;;;;;;20.47;16.07;;;2.90;99.90;;;;;;5113186;28;20735;-56
2021/12/26 06:54:56;;;;;;;18.40;14.60;;;2.80;99.90;;;;;;5112645;28;20181;-51
2021/12/26 06:57:22;;;;;;;21.57;15.70;;;2.70;99.90;;;;;;5112440;28;20169;-55
2021/12/26 06:59:48;;;;;;;18.10;14.20;;;2.70;99.90;;;;;;5112834;28;20656;-55
2021/12/26 07:02:14;;;;;;;17.77;14.47;;;;;;;;;;5113152;28;20241;-55
2021/12/26 07:04:39;;;;;;;17.27;13.73;;;2.50;99.90;;;;;;5112620;28;20193;-57
2021/12/26 07:07:05;;;;;;;17.63;13.53;;;2.60;99.90;;;;;;5112348;28;20180;-57
2021/12/26 07:09:31;;;;;;;20.37;14.47;;;;;;;;;;5113001;28;20191;-62
2021/12/26 07:11:56;;;;;;;16.63;13.57;;;2.40;99.90;;;;;;5112649;28;20669;-63
2021/12/26 07:14:22;;;;;;;17.73;13.97;;;2.40;99.90;;;;;;5112529;28;20193;-64
2021/12/26 07:16:48;;;;;;;18.70;14.00;;;2.40;99.90;;;;;;5111183;28;20575;-66
2021/12/26 07:19:13;;;;;;;18.27;14.07;;;2.40;99.90;;;;;;5111814;28;20301;-63
2021/12/26 07:21:40;;;;;;;26.83;18.73;;;2.50;99.90;;;;;;5110768;28;20177;-53
2021/12/26 07:24:06;;;;;;;20.03;16.17;;;2.20;99.90;;;;;;5111683;28;20192;-56
2021/12/26 07:26:32;;;;;;;17.93;13.77;;;2.50;99.90;;;;;;5112796;28;20411;-55
2021/12/26 07:28:57;;;;;;;17.20;13.90;;;2.60;99.90;;;;;;5112388;28;20590;-57
2021/12/26 07:31:23;;;;;;;18.43;13.90;;;2.60;99.90;;;;;;5112606;28;20169;-55
2021/12/26 07:33:48;;;;;;;16.27;13.80;;;2.70;99.90;;;;;;5111587;28;20215;-55
2021/12/26 07:36:14;;;;;;;18.13;13.33;;;2.40;99.90;;;;;;5112376;28;20575;-55
2021/12/26 07:38:40;;;;;;;17.80;13.40;;;2.40;99.90;;;;;;5112141;28;20180;-56
2021/12/26 07:41:05;;;;;;;17.43;13.10;;;2.40;99.90;;;;;;5112248;28;20165;-56
2021/12/26 07:43:31;;;;;;;18.27;13.07;;;2.50;99.90;;;;;;5111943;28;20549;-55
2021/12/26 07:45:56;;;;;;;17.13;13.37;;;2.50;99.90;;;;;;5112163;28;20629;-55
2021/12/26 07:48:22;;;;;;;16.60;13.47;;;6.60;99.90;;;;;;5112340;28;20734;-50
2021/12/26 07:50:48;;;;;;;17.33;12.73;;;2.20;99.90;;;;;;5111582;28;20180;-59
2021/12/26 07:53:13;;;;;;;15.60;11.93;;;2.20;99.90;;;;;;5111641;28;20276;-55
2021/12/26 07:55:39;;;;;;;17.67;12.67;;;2.40;99.90;;;;;;5111734;28;20338;-51
2021/12/26 07:58:05;;;;;;;16.43;12.83;;;;;;;;;;5112321;28;20176;-56
2021/12/26 08:00:31;;;;;;;17.83;12.53;;;2.40;99.90;;;;;;5111874;28;20173;-58
2021/12/26 08:02:58;;;;;;;15.60;12.07;;;2.50;99.90;;;;;;5112014;28;20234;-58
2021/12/26 08:05:24;;;;;;;15.50;11.23;;;2.50;99.90;;;;;;5105772;28;20337;-56
2021/12/26 08:07:50;;;;;;;14.97;11.53;;;2.90;99.90;;;;;;5097099;28;20198;-59
2021/12/26 08:10:16;;;;;;;13.70;10.27;;;;;;;;;;5105703;28;20232;-49
2021/12/26 08:12:41;;;;;;;15.60;12.00;;;3.00;99.90;;;;;;5103142;28;20229;-54
2021/12/26 08:15:07;;;;;;;17.87;12.73;;;2.40;99.90;;;;;;5095839;28;20240;-51
2021/12/26 08:17:35;;;;;;;16.43;12.77;;;2.40;99.90;;;;;;5095940;28;20209;-53
2021/12/26 08:20:01;;;;;;;15.63;12.50;;;2.70;99.90;;;;;;5115996;28;20590;-52
2021/12/26 08:22:26;;;;;;;14.30;11.27;;;2.70;99.90;;;;;;5111178;28;20186;-54
2021/12/26 08:24:52;;;;;;;16.70;11.43;;;;;;;;;;5110564;28;20209;-57
2021/12/26 08:27:18;;;;;;;14.60;11.40;;;3.10;99.90;;;;;;5108908;28;20180;-56
2021/12/26 08:29:44;;;;;;;14.67;10.80;;;2.50;99.90;;;;;;5116029;28;20169;-54
2021/12/26 08:32:14;;;;;;;15.93;11.67;;;2.80;99.90;;;;;;5115666;28;20208;-53
2021/12/26 08:34:40;;;;;;;16.40;12.23;;;2.60;99.90;;;;;;5115283;28;20218;-56
2021/12/26 08:37:06;;;;;;;14.63;11.13;;;2.50;99.90;;;;;;5115613;28;20172;-56
2021/12/26 08:39:35;;;;;;;14.83;11.33;;;2.60;99.90;;;;;;5110860;28;20207;-55
2021/12/26 08:42:00;;;;;;;16.03;12.10;;;2.50;99.90;;;;;;5095768;28;20177;-55
2021/12/26 08:44:26;;;;;;;13.73;10.93;;;2.40;99.90;;;;;;5115154;28;20207;-52
2021/12/26 08:46:53;;;;;;;15.60;10.60;;;2.50;99.90;;;;;;5117168;28;20179;-57
2021/12/26 08:49:20;;;;;;;15.23;10.53;;;2.10;99.90;;;;;;5117585;28;20185;-55
2021/12/26 08:51:47;;;;;;;15.20;10.13;;;2.10;99.90;;;;;;5116981;28;20202;-55
2021/12/26 08:54:12;;;;;;;12.97;9.57;;;1.90;99.90;;;;;;5115617;28;20427;-54
2021/12/26 08:56:39;;;;;;;13.23;9.57;;;2.30;99.90;;;;;;5113579;28;20422;-54
2021/12/26 08:59:05;;;;;;;13.43;9.80;;;1.90;99.90;;;;;;5115486;28;20173;-53
2021/12/26 09:01:31;;;;;;;13.73;9.40;;;2.20;99.90;;;;;;5115056;28;20536;-53
2021/12/26 09:03:57;;;;;;;11.83;9.50;;;;;;;;;;5115019;28;20197;-54
2021/12/26 09:06:23;;;;;;;13.00;9.63;;;;;;;;;;5114589;28;20181;-58
2021/12/26 09:08:49;;;;;;;14.00;10.07;;;;;;;;;;5115161;28;20748;-57
2021/12/26 09:11:16;;;;;;;12.80;9.70;;;1.80;99.90;;;;;;5114991;28;20169;-54
2021/12/26 09:13:42;;;;;;;13.53;9.37;;;;;;;;;;5109704;27;20221;-58
2021/12/26 09:16:07;;;;;;;14.80;9.50;;;2.30;99.90;;;;;;5094114;28;20173;-53
2021/12/26 09:18:33;;;;;;;12.60;8.93;;;;;;;;;;5094890;28;20419;-51
2021/12/26 09:20:59;;;;;;;12.47;9.00;;;;;;;;;;5113963;28;20575;-54
2021/12/26 09:23:25;;;;;;;10.60;8.60;;;2.20;99.90;;;;;;5114321;28;20195;-49
2021/12/26 09:25:51;;;;;;;12.63;8.77;;;;;;;;;;5113455;28;20414;-56
2021/12/26 09:28:17;;;;;;;11.37;8.27;;;;;;;;;;5114122;28;20259;-61
2021/12/26 09:30:43;;;;;;;11.90;8.60;;;;;;;;;;5093878;28;20177;-53
2021/12/26 09:33:09;;;;;;;10.57;8.13;;;;;;;;;;5093624;28;20193;-56
2021/12/26 09:35:35;;;;;;;11.27;8.27;;;;;;;;;;5092071;28;20250;-55
2021/12/26 09:38:02;;;;;;;10.97;8.40;;;;;;;;;;5093845;28;20178;-56
2021/12/26 09:40:28;;;;;;;14.00;8.93;;;;;;;;;;5105207;28;20438;-55
2021/12/26 09:42:53;;;;;;;11.07;8.30;;;2.60;99.90;;;;;;5114266;28;20222;-54
2021/12/26 09:45:20;;;;;;;11.57;8.47;;;;;;;;;;5113972;28;20661;-56
2021/12/26 09:47:49;;;;;;;12.10;8.33;;;;;;;;;;5094394;28;20182;-57
2021/12/26 09:50:17;;;;;;;12.37;8.40;;;2.90;99.90;;;;;;5093644;28;20166;-51
2021/12/26 09:52:45;;;;;;;14.07;9.20;;;3.50;99.90;;;;;;5103986;28;20207;-55
2021/12/26 09:55:12;;;;;;;11.93;9.03;;;3.30;99.90;;;;;;5113878;28;20192;-54
2021/12/26 09:57:38;;;;;;;12.20;8.27;;;3.60;99.90;;;;;;5114025;28;20267;-54
2021/12/26 10:00:37;;;;;;;13.97;8.57;;;3.90;99.90;;;;;;5114536;28;20234;-53
2021/12/26 10:03:20;;;;;;;10.47;7.97;;;4.20;99.90;;;;;;5102378;28;20188;-54
2021/12/26 10:06:14;;;;;;;12.90;8.23;;;4.20;99.90;;;;;;5105363;28;20200;-52
2021/12/26 10:09:03;;;;;;;11.20;8.03;;;4.20;99.90;;;;;;5102058;28;20565;-54
2021/12/26 10:11:34;;;;;;;10.73;7.40;;;4.40;99.90;;;;;;5096802;28;21309;-62
2021/12/26 10:14:04;;;;;;;12.43;8.87;;;4.90;99.90;;;;;;5099428;28;20197;-61
2021/12/26 10:16:35;;;;;;;10.23;7.87;;;5.00;99.90;;;;;;5092885;28;20181;-61
2021/12/26 10:19:04;;;;;;;11.77;8.77;;;5.20;99.90;;;;;;5094398;28;20677;-59
2021/12/26 10:21:30;;;;;;;9.83;7.43;;;;;;;;;;5113404;28;20261;-55
2021/12/26 10:24:17;;;;;;;9.37;7.27;;;4.90;99.90;;;;;;5110389;28;20275;-53
2021/12/26 10:26:46;;;;;;;9.47;7.37;;;4.70;99.90;;;;;;5099460;28;20199;-56
2021/12/26 10:29:18;;;;;;;12.40;8.83;;;4.30;99.90;;;;;;5108328;28;20176;-61
2021/12/26 10:31:47;;;;;;;11.37;8.17;;;4.30;99.90;;;;;;5106846;28;20189;-62
2021/12/26 10:34:25;;;;;;;11.13;8.37;;;4.30;99.90;;;;;;5109210;28;20212;-55
2021/12/26 10:36:53;;;;;;;11.07;7.73;;;4.70;99.90;;;;;;5108400;28;20169;-58
2021/12/26 10:39:25;;;;;;;12.77;7.50;;;4.70;99.90;;;;;;5107144;28;20663;-54
2021/12/26 10:41:58;;;;;;;10.40;7.83;;;4.80;99.90;;;;;;5104078;28;20173;-58
2021/12/26 10:44:28;;;;;;;10.80;8.53;;;4.60;99.90;;;;;;5109259;28;20211;-59
2021/12/26 10:46:57;;;;;;;11.17;7.77;;;5.00;99.90;;;;;;5111352;28;20534;-59
2021/12/26 10:49:33;;;;;;;9.77;7.40;;;5.20;99.90;;;;;;5109444;28;20219;-59
2021/12/26 10:51:59;;;;;;;10.23;7.20;;;5.40;99.90;;;;;;5110742;28;20283;-58
2021/12/26 10:54:31;;;;;;;8.00;6.67;;;5.40;99.90;;;;;;5109897;28;20254;-51
2021/12/26 10:57:04;;;;;;;11.80;7.67;;;5.30;99.90;;;;;;5110949;28;20196;-59
2021/12/26 10:59:30;;;;;;;9.60;7.60;;;;;;;;;;5108327;28;20590;-58
2021/12/26 11:01:56;;;;;;;8.87;6.97;;;;;;;;;;5093092;28;20177;-59
2021/12/26 11:04:25;;;;;;;9.07;7.00;;;5.30;99.90;;;;;;5091168;28;20247;-59
2021/12/26 11:07:08;;;;;;;10.40;7.03;;;5.30;99.90;;;;;;5091821;28;20555;-57
2021/12/26 11:09:33;;;;;;;9.60;6.67;;;5.50;99.90;;;;;;5092018;28;20243;-58
2021/12/26 11:12:08;;;;;;;9.43;6.80;;;6.10;99.90;;;;;;5091766;28;20194;-57
2021/12/26 11:15:01;;;;;;;9.30;6.40;;;8.00;99.90;;;;;;5091182;28;20193;-60
2021/12/26 11:17:29;;;;;;;7.47;5.83;;;8.70;99.90;;;;;;5091563;28;20169;-62
2021/12/26 11:19:54;;;;;;;8.70;6.20;;;9.30;99.90;;;;;;5092137;28;20249;-59
2021/12/26 11:22:22;;;;;;;11.20;6.50;;;9.60;99.90;;;;;;5091776;28;20226;-60
2021/12/26 11:24:49;;;;;;;8.00;6.30;;;9.40;99.90;;;;;;5091544;28;20197;-57
2021/12/26 11:27:15;;;;;;;8.17;6.57;;;;;;;;;;5091708;28;20170;-60
2021/12/26 11:29:41;;;;;;;9.23;6.87;;;8.80;99.90;;;;;;5104095;28;20185;-60
2021/12/26 11:32:07;;;;;;;9.63;6.57;;;8.20;99.90;;;;;;5112410;28;20189;-60
2021/12/26 11:34:34;;;;;;;8.23;6.57;;;8.30;99.90;;;;;;5110998;28;20276;-59
2021/12/26 11:37:00;;;;;;;8.60;6.33;;;8.20;99.90;;;;;;5112323;28;20282;-60
2021/12/26 11:39:26;;;;;;;8.43;6.37;;;;;;;;;;5111620;28;20192;-61
2021/12/26 11:42:12;;;;;;;7.57;5.73;;;8.30;99.90;;;;;;5111752;28;20173;-60
2021/12/26 11:45:21;;;;;;;8.60;6.23;;;8.00;99.90;;;;;;5110838;28;20238;-59
2021/12/26 11:48:11;;;;;;;8.57;6.33;;;7.80;99.90;;;;;;5105635;28;20667;-58
2021/12/26 11:50:56;;;;;;;7.07;5.87;;;8.60;99.90;;;;;;5111372;28;20673;-59
2021/12/26 11:53:53;;;;;;;8.53;6.40;;;9.60;99.90;;;;;;5106224;28;20207;-62
2021/12/26 11:56:34;;;;;;;8.83;6.23;;;10.70;99.90;;;;;;5111275;28;20744;-62
2021/12/26 11:59:15;;;;;;;9.00;6.40;;;11.30;98.70;;;;;;5111631;28;20550;-59
2021/12/26 12:01:45;;;;;;;8.13;6.10;;;11.50;99.90;;;;;;5102493;28;20188;-63
2021/12/26 12:04:20;;;;;;;8.80;5.73;;;12.30;98.80;;;;;;5111039;28;20232;-59
2021/12/26 12:06:48;;;;;;;7.73;6.10;;;12.00;99.10;;;;;;5111587;28;20171;-58
2021/12/26 12:09:30;;;;;;;7.90;6.20;;;12.40;97.60;;;;;;5111653;28;20173;-59
2021/12/26 12:11:57;;;;;;;9.43;6.20;;;12.90;95.00;;;;;;5111541;28;20258;-60
2021/12/26 12:14:47;;;;;;;6.90;5.57;;;13.30;94.40;;;;;;5111082;28;20204;-59
2021/12/26 12:17:15;;;;;;;8.40;5.53;;;13.10;94.20;;;;;;5111669;28;20219;-60
2021/12/26 12:20:05;;;;;;;7.80;5.50;;;13.10;97.00;;;;;;5111569;28;20535;-61
2021/12/26 12:22:31;;;;;;;7.90;6.00;;;;;;;;;;5111925;28;20677;-59
2021/12/26 12:24:57;;;;;;;7.57;5.93;;;;;;;;;;5110739;28;20193;-62
2021/12/26 12:27:24;;;;;;;6.90;5.23;;;12.60;95.90;;;;;;5111632;28;20185;-62
2021/12/26 12:29:52;;;;;;;7.80;6.13;;;13.30;95.60;;;;;;5111885;28;20173;-58
2021/12/26 12:32:25;;;;;;;8.37;6.60;;;11.90;93.00;;;;;;5111034;28;20201;-61
2021/12/26 12:35:01;;;;;;;7.57;5.90;;;11.10;97.00;;;;;;5111482;28;20195;-59
2021/12/26 12:37:37;;;;;;;7.73;6.17;;;10.40;98.40;;;;;;5111399;28;20172;-57
2021/12/26 12:40:27;;;;;;;7.70;5.93;;;9.80;96.00;;;;;;5111861;28;20176;-60
2021/12/26 12:43:15;;;;;;;9.17;6.60;;;9.10;99.90;;;;;;5111229;28;20178;-58
2021/12/26 12:45:57;;;;;;;8.63;6.33;;;8.00;97.70;;;;;;5111500;28;20189;-61
2021/12/26 12:48:31;;;;;;;8.17;6.20;;;7.50;98.60;;;;;;5110889;28;20169;-61
2021/12/26 12:51:22;;;;;;;8.83;5.87;;;7.00;99.10;;;;;;5111919;28;20188;-61
2021/12/26 12:53:58;;;;;;;9.13;6.00;;;6.50;99.90;;;;;;5110919;28;20213;-58
2021/12/26 12:56:29;;;;;;;8.13;6.17;;;6.00;99.90;;;;;;5114608;28;20165;-59
2021/12/26 12:59:16;;;;;;;8.87;6.50;;;6.30;99.90;;;;;;5115312;28;20169;-60
2021/12/26 13:01:42;;;;;;;8.03;6.43;;;;;;;;;;5116075;28;20229;-60
2021/12/26 13:04:08;;;;;;;8.87;6.20;;;;;;;;;;5115870;28;20677;-59
2021/12/26 13:06:34;;;;;;;10.10;6.37;;;;;;;;;;5114671;28;20196;-62
2021/12/26 13:09:00;;;;;;;8.83;5.77;;;5.90;99.90;;;;;;5115307;28;20686;-58